sensor_id;sensor_type;location;lat;lon;timestamp;noise_LAeq;noise_LA_min;noise_LA_max;noise_LA01;noise_LA95
46393;Laerm;32099;53.588;10.176;2023-07-20T00:01:01;33.37;31.54;39.15;;
46393;Laerm;32099;53.588;10.176;2023-07-20T00:03:27;33.56;31.43;43.83;;
46393;Laerm;32099;53.588;10.176;2023-07-20T00:05:52;32.90;31.37;34.57;;
46393;Laerm;32099;53.588;10.176;2023-07-20T00:08:17;33.32;31.48;40.71;;
46393;Laerm;32099;53.588;10.176;2023-07-20T00:10:43;32.73;31.22;38.33;;
46393;Laerm;32099;53.588;10.176;2023-07-20T00:13:10;32.77;31.07;34.61;;
46393;Laerm;32099;53.588;10.176;2023-07-20T00:15:36;32.74;31.14;34.53;;
46393;Laerm;32099;53.588;10.176;2023-07-20T00:18:03;33.48;31.26;43.23;;
46393;Laerm;32099;53.588;10.176;2023-07-20T00:20:29;32.69;31.40;34.11;;
46393;Laerm;32099;53.588;10.176;2023-07-20T00:22:54;32.75;31.19;34.54;;
46393;Laerm;32099;53.588;10.176;2023-07-20T00:25:20;32.74;31.21;35.52;;
46393;Laerm;32099;53.588;10.176;2023-07-20T00:27:45;32.85;31.34;43.08;;
46393;Laerm;32099;53.588;10.176;2023-07-20T00:30:11;33.08;31.14;42.62;;
46393;Laerm;32099;53.588;10.176;2023-07-20T00:32:36;32.78;31.48;35.19;;
46393;Laerm;32099;53.588;10.176;2023-07-20T00:35:02;32.78;31.14;41.27;;
46393;Laerm;32099;53.588;10.176;2023-07-20T00:37:27;33.89;31.37;44.76;;
46393;Laerm;32099;53.588;10.176;2023-07-20T00:39:53;34.23;31.80;41.45;;
46393;Laerm;32099;53.588;10.176;2023-07-20T00:42:18;32.94;31.36;34.58;;
46393;Laerm;32099;53.588;10.176;2023-07-20T00:44:43;35.13;31.67;55.16;;
46393;Laerm;32099;53.588;10.176;2023-07-20T00:47:09;35.33;31.64;50.18;;
46393;Laerm;32099;53.588;10.176;2023-07-20T00:49:34;33.45;31.51;37.17;;
46393;Laerm;32099;53.588;10.176;2023-07-20T00:52:01;32.82;31.40;35.51;;
46393;Laerm;32099;53.588;10.176;2023-07-20T00:54:28;32.75;31.42;36.33;;
46393;Laerm;32099;53.588;10.176;2023-07-20T00:56:54;32.78;31.34;34.68;;
46393;Laerm;32099;53.588;10.176;2023-07-20T00:59:19;37.05;31.36;56.48;;
46393;Laerm;32099;53.588;10.176;2023-07-20T01:01:45;42.87;37.44;54.32;;
46393;Laerm;32099;53.588;10.176;2023-07-20T01:04:11;41.55;37.50;51.65;;
46393;Laerm;32099;53.588;10.176;2023-07-20T01:34:15;49.02;38.97;61.33;;
46393;Laerm;32099;53.588;10.176;2023-07-20T01:36:43;49.55;39.27;61.92;;
46393;Laerm;32099;53.588;10.176;2023-07-20T01:39:10;38.06;33.73;52.50;;
46393;Laerm;32099;53.588;10.176;2023-07-20T01:41:35;38.88;32.79;51.92;;
46393;Laerm;32099;53.588;10.176;2023-07-20T01:44:03;38.80;32.81;49.66;;
46393;Laerm;32099;53.588;10.176;2023-07-20T01:46:29;41.82;35.82;51.79;;
46393;Laerm;32099;53.588;10.176;2023-07-20T01:48:54;37.21;33.22;48.85;;
46393;Laerm;32099;53.588;10.176;2023-07-20T01:51:20;35.34;31.97;52.17;;
46393;Laerm;32099;53.588;10.176;2023-07-20T01:53:45;42.98;35.33;62.27;;
46393;Laerm;32099;53.588;10.176;2023-07-20T01:56:10;41.25;35.22;55.29;;
46393;Laerm;32099;53.588;10.176;2023-07-20T01:58:38;37.73;34.32;48.67;;
46393;Laerm;32099;53.588;10.176;2023-07-20T02:01:03;38.11;33.72;50.11;;
46393;Laerm;32099;53.588;10.176;2023-07-20T02:03:28;38.27;34.97;49.18;;
46393;Laerm;32099;53.588;10.176;2023-07-20T02:05:54;37.38;34.01;52.55;;
46393;Laerm;32099;53.588;10.176;2023-07-20T02:08:19;37.62;34.08;51.39;;
46393;Laerm;32099;53.588;10.176;2023-07-20T02:10:48;39.70;35.90;52.17;;
46393;Laerm;32099;53.588;10.176;2023-07-20T02:13:14;42.13;38.10;57.06;;
46393;Laerm;32099;53.588;10.176;2023-07-20T02:15:40;42.56;38.48;52.55;;
46393;Laerm;32099;53.588;10.176;2023-07-20T02:18:06;47.08;36.67;60.82;;
46393;Laerm;32099;53.588;10.176;2023-07-20T02:20:31;41.12;35.75;52.12;;
46393;Laerm;32099;53.588;10.176;2023-07-20T02:22:57;38.55;34.90;51.82;;
46393;Laerm;32099;53.588;10.176;2023-07-20T02:25:22;38.64;34.78;51.78;;
46393;Laerm;32099;53.588;10.176;2023-07-20T02:27:47;38.31;33.45;52.67;;
46393;Laerm;32099;53.588;10.176;2023-07-20T02:30:13;38.93;33.89;52.46;;
46393;Laerm;32099;53.588;10.176;2023-07-20T02:32:39;38.59;33.93;56.12;;
46393;Laerm;32099;53.588;10.176;2023-07-20T02:35:04;39.25;35.19;58.39;;
46393;Laerm;32099;53.588;10.176;2023-07-20T02:37:30;42.79;34.31;53.67;;
46393;Laerm;32099;53.588;10.176;2023-07-20T02:39:55;41.35;33.58;52.76;;
46393;Laerm;32099;53.588;10.176;2023-07-20T02:42:21;50.02;34.20;66.69;;
46393;Laerm;32099;53.588;10.176;2023-07-20T02:44:48;47.04;33.56;61.54;;
46393;Laerm;32099;53.588;10.176;2023-07-20T02:47:13;36.97;33.29;49.42;;
46393;Laerm;32099;53.588;10.176;2023-07-20T02:49:38;36.87;32.86;55.47;;
46393;Laerm;32099;53.588;10.176;2023-07-20T02:52:04;40.41;32.85;59.70;;
46393;Laerm;32099;53.588;10.176;2023-07-20T02:54:30;40.37;32.72;54.43;;
46393;Laerm;32099;53.588;10.176;2023-07-20T02:56:55;36.72;33.06;50.33;;
46393;Laerm;32099;53.588;10.176;2023-07-20T02:59:21;37.10;32.78;51.47;;
46393;Laerm;32099;53.588;10.176;2023-07-20T03:01:46;47.44;33.17;67.76;;
46393;Laerm;32099;53.588;10.176;2023-07-20T03:04:11;42.25;35.67;59.02;;
46393;Laerm;32099;53.588;10.176;2023-07-20T03:06:37;40.36;34.00;55.99;;
46393;Laerm;32099;53.588;10.176;2023-07-20T03:09:02;41.41;34.26;57.40;;
46393;Laerm;32099;53.588;10.176;2023-07-20T03:11:32;42.99;37.11;61.13;;
46393;Laerm;32099;53.588;10.176;2023-07-20T03:13:59;42.89;35.77;55.58;;
46393;Laerm;32099;53.588;10.176;2023-07-20T03:16:24;45.89;33.74;66.39;;
46393;Laerm;32099;53.588;10.176;2023-07-20T03:18:50;38.57;32.93;49.96;;
46393;Laerm;32099;53.588;10.176;2023-07-20T03:21:16;38.29;33.55;48.57;;
46393;Laerm;32099;53.588;10.176;2023-07-20T03:23:42;36.96;33.54;48.56;;
46393;Laerm;32099;53.588;10.176;2023-07-20T03:26:08;38.15;33.22;51.75;;
46393;Laerm;32099;53.588;10.176;2023-07-20T03:28:34;37.29;33.67;49.02;;
46393;Laerm;32099;53.588;10.176;2023-07-20T03:31:00;47.54;32.91;68.55;;
46393;Laerm;32099;53.588;10.176;2023-07-20T03:33:27;45.95;32.91;65.17;;
46393;Laerm;32099;53.588;10.176;2023-07-20T03:35:53;36.99;32.76;50.83;;
46393;Laerm;32099;53.588;10.176;2023-07-20T03:38:19;38.19;32.98;50.44;;
46393;Laerm;32099;53.588;10.176;2023-07-20T03:43:19;49.67;33.91;70.43;;
46393;Laerm;32099;53.588;10.176;2023-07-20T03:45:45;51.70;34.14;73.90;;
46393;Laerm;32099;53.588;10.176;2023-07-20T03:48:13;37.81;33.52;50.10;;
46393;Laerm;32099;53.588;10.176;2023-07-20T03:50:38;38.25;32.86;51.54;;
46393;Laerm;32099;53.588;10.176;2023-07-20T03:53:03;36.59;32.72;47.30;;
46393;Laerm;32099;53.588;10.176;2023-07-20T03:55:29;51.22;34.58;73.16;;
46393;Laerm;32099;53.588;10.176;2023-07-20T03:57:54;40.66;34.08;51.59;;
46393;Laerm;32099;53.588;10.176;2023-07-20T04:00:19;37.08;33.59;47.25;;
46393;Laerm;32099;53.588;10.176;2023-07-20T04:02:45;39.85;33.79;55.44;;
46393;Laerm;32099;53.588;10.176;2023-07-20T04:05:10;40.36;33.23;54.85;;
46393;Laerm;32099;53.588;10.176;2023-07-20T04:07:35;54.47;35.29;72.46;;
46393;Laerm;32099;53.588;10.176;2023-07-20T04:10:01;39.37;33.66;53.07;;
46393;Laerm;32099;53.588;10.176;2023-07-20T04:12:26;46.92;33.64;67.80;;
46393;Laerm;32099;53.588;10.176;2023-07-20T04:14:51;51.76;33.67;72.55;;
46393;Laerm;32099;53.588;10.176;2023-07-20T04:17:18;42.45;33.89;62.44;;
46393;Laerm;32099;53.588;10.176;2023-07-20T04:19:43;37.47;33.70;53.79;;
46393;Laerm;32099;53.588;10.176;2023-07-20T04:22:09;40.93;33.18;64.90;;
46393;Laerm;32099;53.588;10.176;2023-07-20T04:24:34;52.80;33.60;72.54;;
46393;Laerm;32099;53.588;10.176;2023-07-20T04:26:59;45.75;33.00;66.66;;
46393;Laerm;32099;53.588;10.176;2023-07-20T04:29:25;40.91;33.92;57.14;;
46393;Laerm;32099;53.588;10.176;2023-07-20T04:31:50;38.98;33.56;54.67;;
46393;Laerm;32099;53.588;10.176;2023-07-20T04:34:16;48.11;33.82;70.32;;
46393;Laerm;32099;53.588;10.176;2023-07-20T04:36:41;50.02;34.07;63.57;;
46393;Laerm;32099;53.588;10.176;2023-07-20T04:39:06;48.76;34.58;62.16;;
46393;Laerm;32099;53.588;10.176;2023-07-20T04:41:33;55.65;35.65;70.04;;
46393;Laerm;32099;53.588;10.176;2023-07-20T04:43:58;46.58;34.21;63.95;;
46393;Laerm;32099;53.588;10.176;2023-07-20T04:46:24;48.46;34.85;60.32;;
46393;Laerm;32099;53.588;10.176;2023-07-20T04:48:49;57.33;34.12;79.39;;
46393;Laerm;32099;53.588;10.176;2023-07-20T04:51:14;50.63;34.23;69.97;;
46393;Laerm;32099;53.588;10.176;2023-07-20T04:53:40;48.79;35.18;60.59;;
46393;Laerm;32099;53.588;10.176;2023-07-20T04:56:05;45.68;35.70;56.77;;
46393;Laerm;32099;53.588;10.176;2023-07-20T04:58:30;50.98;34.13;69.50;;
46393;Laerm;32099;53.588;10.176;2023-07-20T05:00:55;49.40;34.16;68.23;;
46393;Laerm;32099;53.588;10.176;2023-07-20T05:03:21;40.24;32.99;59.72;;
46393;Laerm;32099;53.588;10.176;2023-07-20T05:05:47;38.04;33.18;49.07;;
46393;Laerm;32099;53.588;10.176;2023-07-20T05:08:13;39.28;33.10;53.43;;
46393;Laerm;32099;53.588;10.176;2023-07-20T05:10:38;42.66;35.72;52.88;;
46393;Laerm;32099;53.588;10.176;2023-07-20T05:13:04;41.37;36.44;55.06;;
46393;Laerm;32099;53.588;10.176;2023-07-20T05:15:29;49.45;36.47;69.25;;
46393;Laerm;32099;53.588;10.176;2023-07-20T05:17:54;39.21;34.40;59.47;;
46393;Laerm;32099;53.588;10.176;2023-07-20T05:20:19;48.69;35.04;67.99;;
46393;Laerm;32099;53.588;10.176;2023-07-20T05:22:45;52.44;38.99;68.37;;
46393;Laerm;32099;53.588;10.176;2023-07-20T05:25:11;44.02;38.38;57.58;;
46393;Laerm;32099;53.588;10.176;2023-07-20T05:27:37;50.83;37.91;66.98;;
46393;Laerm;32099;53.588;10.176;2023-07-20T05:30:03;44.51;39.29;57.09;;
46393;Laerm;32099;53.588;10.176;2023-07-20T05:32:29;52.95;38.16;78.49;;
46393;Laerm;32099;53.588;10.176;2023-07-20T05:34:54;50.78;38.40;70.21;;
46393;Laerm;32099;53.588;10.176;2023-07-20T05:37:20;44.31;38.44;61.88;;
46393;Laerm;32099;53.588;10.176;2023-07-20T05:39:45;44.14;38.19;58.24;;
46393;Laerm;32099;53.588;10.176;2023-07-20T05:42:11;47.18;37.50;66.35;;
46393;Laerm;32099;53.588;10.176;2023-07-20T05:44:36;50.40;39.85;65.31;;
46393;Laerm;32099;53.588;10.176;2023-07-20T05:47:01;47.67;38.82;64.76;;
46393;Laerm;32099;53.588;10.176;2023-07-20T05:49:28;51.10;38.53;65.73;;
46393;Laerm;32099;53.588;10.176;2023-07-20T05:51:54;49.24;37.69;69.37;;
46393;Laerm;32099;53.588;10.176;2023-07-20T05:54:21;53.70;39.01;79.03;;
46393;Laerm;32099;53.588;10.176;2023-07-20T05:56:46;46.55;38.25;62.72;;
46393;Laerm;32099;53.588;10.176;2023-07-20T05:59:12;50.51;37.62;69.67;;
46393;Laerm;32099;53.588;10.176;2023-07-20T06:01:38;52.78;37.53;69.17;;
46393;Laerm;32099;53.588;10.176;2023-07-20T06:04:03;50.38;38.11;67.06;;
46393;Laerm;32099;53.588;10.176;2023-07-20T06:06:29;58.22;38.66;79.19;;
46393;Laerm;32099;53.588;10.176;2023-07-20T06:08:54;44.93;37.65;65.50;;
46393;Laerm;32099;53.588;10.176;2023-07-20T06:11:19;50.61;37.60;70.31;;
46393;Laerm;32099;53.588;10.176;2023-07-20T06:13:45;49.31;37.76;69.42;;
46393;Laerm;32099;53.588;10.176;2023-07-20T06:16:10;43.46;36.90;56.56;;
46393;Laerm;32099;53.588;10.176;2023-07-20T06:18:36;61.18;39.46;79.66;;
46393;Laerm;32099;53.588;10.176;2023-07-20T06:21:01;44.93;37.88;57.91;;
46393;Laerm;32099;53.588;10.176;2023-07-20T06:23:27;48.90;39.65;66.77;;
46393;Laerm;32099;53.588;10.176;2023-07-20T06:25:52;53.28;36.55;72.78;;
46393;Laerm;32099;53.588;10.176;2023-07-20T06:28:17;63.82;34.53;83.65;;
46393;Laerm;32099;53.588;10.176;2023-07-20T06:30:43;52.20;37.86;70.67;;
46393;Laerm;32099;53.588;10.176;2023-07-20T06:33:08;59.68;38.42;84.48;;
46393;Laerm;32099;53.588;10.176;2023-07-20T06:35:34;48.88;36.52;69.25;;
46393;Laerm;32099;53.588;10.176;2023-07-20T06:38:00;49.75;36.36;70.61;;
46393;Laerm;32099;53.588;10.176;2023-07-20T06:40:26;51.80;36.67;68.62;;
46393;Laerm;32099;53.588;10.176;2023-07-20T06:42:51;54.16;36.53;72.04;;
46393;Laerm;32099;53.588;10.176;2023-07-20T06:45:17;54.89;36.74;73.10;;
46393;Laerm;32099;53.588;10.176;2023-07-20T06:47:42;52.51;37.52;71.24;;
46393;Laerm;32099;53.588;10.176;2023-07-20T06:50:08;61.63;36.37;80.95;;
46393;Laerm;32099;53.588;10.176;2023-07-20T06:52:33;40.63;35.26;50.33;;
46393;Laerm;32099;53.588;10.176;2023-07-20T06:54:59;39.78;34.51;59.75;;
46393;Laerm;32099;53.588;10.176;2023-07-20T06:57:25;40.11;35.51;50.42;;
46393;Laerm;32099;53.588;10.176;2023-07-20T06:59:50;40.19;35.64;53.10;;
46393;Laerm;32099;53.588;10.176;2023-07-20T07:02:15;44.81;39.65;57.83;;
46393;Laerm;32099;53.588;10.176;2023-07-20T07:04:41;49.17;37.28;63.80;;
46393;Laerm;32099;53.588;10.176;2023-07-20T07:07:07;47.07;39.16;65.34;;
46393;Laerm;32099;53.588;10.176;2023-07-20T07:09:32;49.97;38.39;69.66;;
46393;Laerm;32099;53.588;10.176;2023-07-20T07:11:57;57.08;41.18;73.90;;
46393;Laerm;32099;53.588;10.176;2023-07-20T07:14:22;53.19;43.25;67.90;;
46393;Laerm;32099;53.588;10.176;2023-07-20T07:16:48;51.41;40.39;66.40;;
46393;Laerm;32099;53.588;10.176;2023-07-20T07:19:13;48.33;41.20;62.59;;
46393;Laerm;32099;53.588;10.176;2023-07-20T07:21:38;44.13;38.52;56.36;;
46393;Laerm;32099;53.588;10.176;2023-07-20T07:24:04;47.79;38.24;66.30;;
46393;Laerm;32099;53.588;10.176;2023-07-20T07:26:30;43.75;34.46;55.65;;
46393;Laerm;32099;53.588;10.176;2023-07-20T07:28:55;38.74;33.92;46.18;;
46393;Laerm;32099;53.588;10.176;2023-07-20T07:31:20;54.39;36.58;70.91;;
46393;Laerm;32099;53.588;10.176;2023-07-20T07:33:46;50.50;38.20;67.76;;
46393;Laerm;32099;53.588;10.176;2023-07-20T07:36:11;49.40;39.12;64.30;;
46393;Laerm;32099;53.588;10.176;2023-07-20T07:38:36;46.49;36.93;64.06;;
46393;Laerm;32099;53.588;10.176;2023-07-20T07:41:02;48.87;41.22;65.46;;
46393;Laerm;32099;53.588;10.176;2023-07-20T07:43:27;52.15;36.47;69.25;;
46393;Laerm;32099;53.588;10.176;2023-07-20T07:45:54;49.42;35.98;66.87;;
46393;Laerm;32099;53.588;10.176;2023-07-20T07:48:20;54.73;37.83;68.82;;
46393;Laerm;32099;53.588;10.176;2023-07-20T07:50:46;46.91;34.79;62.15;;
46393;Laerm;32099;53.588;10.176;2023-07-20T07:53:11;54.10;42.64;71.51;;
46393;Laerm;32099;53.588;10.176;2023-07-20T07:55:37;53.59;43.15;70.82;;
46393;Laerm;32099;53.588;10.176;2023-07-20T07:58:02;52.58;42.25;67.20;;
46393;Laerm;32099;53.588;10.176;2023-07-20T08:00:27;56.68;39.95;71.30;;
46393;Laerm;32099;53.588;10.176;2023-07-20T08:02:53;53.25;39.38;67.29;;
46393;Laerm;32099;53.588;10.176;2023-07-20T08:05:18;54.82;39.47;71.68;;
46393;Laerm;32099;53.588;10.176;2023-07-20T08:07:43;53.58;41.44;71.45;;
46393;Laerm;32099;53.588;10.176;2023-07-20T08:10:09;52.86;40.58;66.39;;
46393;Laerm;32099;53.588;10.176;2023-07-20T08:12:35;55.66;39.91;67.56;;
46393;Laerm;32099;53.588;10.176;2023-07-20T08:15:00;54.85;40.16;68.20;;
46393;Laerm;32099;53.588;10.176;2023-07-20T08:17:25;50.33;37.72;66.23;;
46393;Laerm;32099;53.588;10.176;2023-07-20T08:19:51;45.86;37.31;63.02;;
46393;Laerm;32099;53.588;10.176;2023-07-20T08:22:16;39.91;37.24;47.94;;
46393;Laerm;32099;53.588;10.176;2023-07-20T08:24:42;50.55;36.93;69.44;;
46393;Laerm;32099;53.588;10.176;2023-07-20T08:27:08;42.90;36.22;61.07;;
46393;Laerm;32099;53.588;10.176;2023-07-20T08:29:34;44.97;37.23;57.45;;
46393;Laerm;32099;53.588;10.176;2023-07-20T08:32:00;52.92;34.68;71.16;;
46393;Laerm;32099;53.588;10.176;2023-07-20T08:34:25;51.21;35.37;72.86;;
46393;Laerm;32099;53.588;10.176;2023-07-20T08:36:50;49.62;36.29;66.86;;
46393;Laerm;32099;53.588;10.176;2023-07-20T08:39:16;53.44;33.70;70.84;;
46393;Laerm;32099;53.588;10.176;2023-07-20T08:41:42;47.85;34.79;68.25;;
46393;Laerm;32099;53.588;10.176;2023-07-20T08:44:08;47.40;37.68;64.89;;
46393;Laerm;32099;53.588;10.176;2023-07-20T08:46:35;49.41;36.79;71.53;;
46393;Laerm;32099;53.588;10.176;2023-07-20T08:49:03;48.36;37.43;65.98;;
46393;Laerm;32099;53.588;10.176;2023-07-20T08:51:29;45.53;37.10;67.57;;
46393;Laerm;32099;53.588;10.176;2023-07-20T08:53:55;41.89;35.83;67.82;;
46393;Laerm;32099;53.588;10.176;2023-07-20T08:56:20;49.90;40.60;68.81;;
46393;Laerm;32099;53.588;10.176;2023-07-20T08:58:47;48.50;37.52;65.45;;
46393;Laerm;32099;53.588;10.176;2023-07-20T09:01:14;48.81;33.95;66.67;;
46393;Laerm;32099;53.588;10.176;2023-07-20T09:03:39;51.32;33.63;70.44;;
46393;Laerm;32099;53.588;10.176;2023-07-20T09:06:05;43.80;36.20;70.81;;
46393;Laerm;32099;53.588;10.176;2023-07-20T09:08:31;50.84;36.63;71.11;;
46393;Laerm;32099;53.588;10.176;2023-07-20T09:10:56;46.50;38.79;69.72;;
46393;Laerm;32099;53.588;10.176;2023-07-20T09:13:22;45.51;40.16;52.58;;
46393;Laerm;32099;53.588;10.176;2023-07-20T09:15:48;52.02;38.20;67.87;;
46393;Laerm;32099;53.588;10.176;2023-07-20T09:20:50;47.50;38.02;67.94;;
46393;Laerm;32099;53.588;10.176;2023-07-20T09:23:15;46.83;37.18;75.38;;
46393;Laerm;32099;53.588;10.176;2023-07-20T09:25:41;50.74;34.23;79.98;;
46393;Laerm;32099;53.588;10.176;2023-07-20T09:28:07;46.28;35.42;68.60;;
46393;Laerm;32099;53.588;10.176;2023-07-20T09:30:32;48.34;34.20;68.79;;
46393;Laerm;32099;53.588;10.176;2023-07-20T09:32:58;50.08;35.48;77.03;;
46393;Laerm;32099;53.588;10.176;2023-07-20T09:35:24;43.21;36.25;63.01;;
46393;Laerm;32099;53.588;10.176;2023-07-20T09:37:59;57.23;41.34;66.00;;
46393;Laerm;32099;53.588;10.176;2023-07-20T09:40:25;54.62;46.76;62.62;;
46393;Laerm;32099;53.588;10.176;2023-07-20T09:42:54;51.97;41.15;62.10;;
46393;Laerm;32099;53.588;10.176;2023-07-20T09:45:49;53.34;39.32;69.00;;
46393;Laerm;32099;53.588;10.176;2023-07-20T09:48:15;49.10;37.22;68.65;;
46393;Laerm;32099;53.588;10.176;2023-07-20T09:50:41;50.86;36.73;71.28;;
46393;Laerm;32099;53.588;10.176;2023-07-20T09:53:09;41.28;36.64;56.46;;
46393;Laerm;32099;53.588;10.176;2023-07-20T09:55:36;51.17;36.19;68.59;;
46393;Laerm;32099;53.588;10.176;2023-07-20T09:58:02;53.90;35.91;70.35;;
46393;Laerm;32099;53.588;10.176;2023-07-20T10:00:28;47.72;36.83;65.66;;
46393;Laerm;32099;53.588;10.176;2023-07-20T10:02:55;40.41;36.60;49.64;;
46393;Laerm;32099;53.588;10.176;2023-07-20T10:05:21;49.13;35.57;68.44;;
46393;Laerm;32099;53.588;10.176;2023-07-20T10:07:48;47.07;36.18;67.17;;
46393;Laerm;32099;53.588;10.176;2023-07-20T10:10:15;47.81;35.84;66.26;;
46393;Laerm;32099;53.588;10.176;2023-07-20T10:12:42;41.17;35.84;51.04;;
46393;Laerm;32099;53.588;10.176;2023-07-20T10:17:41;51.21;35.89;68.52;;
46393;Laerm;32099;53.588;10.176;2023-07-20T10:20:16;39.95;34.81;58.81;;
46393;Laerm;32099;53.588;10.176;2023-07-20T10:22:43;41.14;36.08;54.77;;
46393;Laerm;32099;53.588;10.176;2023-07-20T10:25:10;41.11;35.20;53.95;;
46393;Laerm;32099;53.588;10.176;2023-07-20T10:27:35;51.05;34.74;68.26;;
46393;Laerm;32099;53.588;10.176;2023-07-20T10:30:01;48.14;36.07;68.78;;
46393;Laerm;32099;53.588;10.176;2023-07-20T10:32:28;47.38;33.55;68.41;;
46393;Laerm;32099;53.588;10.176;2023-07-20T10:34:56;51.11;33.19;69.46;;
46393;Laerm;32099;53.588;10.176;2023-07-20T10:37:50;48.68;35.13;66.26;;
46393;Laerm;32099;53.588;10.176;2023-07-20T10:40:42;55.35;38.15;71.67;;
46393;Laerm;32099;53.588;10.176;2023-07-20T10:43:09;47.08;37.10;66.43;;
46393;Laerm;32099;53.588;10.176;2023-07-20T10:45:53;48.95;35.20;67.90;;
46393;Laerm;32099;53.588;10.176;2023-07-20T10:48:21;50.98;35.14;69.82;;
46393;Laerm;32099;53.588;10.176;2023-07-20T10:51:11;57.77;46.29;74.03;;
46393;Laerm;32099;53.588;10.176;2023-07-20T10:53:36;42.86;37.99;51.59;;
46393;Laerm;32099;53.588;10.176;2023-07-20T10:56:15;46.52;36.06;66.59;;
46393;Laerm;32099;53.588;10.176;2023-07-20T10:58:44;47.32;36.32;68.17;;
46393;Laerm;32099;53.588;10.176;2023-07-20T11:01:13;52.13;35.61;70.52;;
46393;Laerm;32099;53.588;10.176;2023-07-20T11:03:40;39.82;35.72;49.07;;
46393;Laerm;32099;53.588;10.176;2023-07-20T11:08:50;46.55;34.33;67.89;;
46393;Laerm;32099;53.588;10.176;2023-07-20T11:11:25;47.45;34.31;66.34;;
46393;Laerm;32099;53.588;10.176;2023-07-20T11:13:58;39.10;34.27;52.63;;
46393;Laerm;32099;53.588;10.176;2023-07-20T11:16:43;39.12;34.58;47.25;;
46393;Laerm;32099;53.588;10.176;2023-07-20T11:21:43;55.82;47.62;71.11;;
46393;Laerm;32099;53.588;10.176;2023-07-20T11:24:09;48.10;43.00;56.40;;
46393;Laerm;32099;53.588;10.176;2023-07-20T11:26:47;47.48;37.49;66.25;;
46393;Laerm;32099;53.588;10.176;2023-07-20T11:29:13;59.71;36.98;71.06;;
46393;Laerm;32099;53.588;10.176;2023-07-20T11:31:40;57.92;46.93;72.25;;
46393;Laerm;32099;53.588;10.176;2023-07-20T11:34:09;54.80;38.74;69.41;;
46393;Laerm;32099;53.588;10.176;2023-07-20T11:36:36;58.53;38.35;73.41;;
46393;Laerm;32099;53.588;10.176;2023-07-20T11:39:01;49.65;38.40;68.92;;
46393;Laerm;32099;53.588;10.176;2023-07-20T11:41:29;49.26;38.08;66.47;;
46393;Laerm;32099;53.588;10.176;2023-07-20T11:43:55;51.16;37.63;67.91;;
46393;Laerm;32099;53.588;10.176;2023-07-20T11:46:20;48.76;38.54;67.40;;
46393;Laerm;32099;53.588;10.176;2023-07-20T11:48:45;40.31;35.67;55.49;;
46393;Laerm;32099;53.588;10.176;2023-07-20T11:51:15;40.17;36.82;47.71;;
46393;Laerm;32099;53.588;10.176;2023-07-20T11:53:41;50.02;37.39;67.18;;
46393;Laerm;32099;53.588;10.176;2023-07-20T11:56:07;52.83;37.54;71.65;;
46393;Laerm;32099;53.588;10.176;2023-07-20T11:58:32;50.44;36.32;69.78;;
46393;Laerm;32099;53.588;10.176;2023-07-20T12:00:58;49.89;36.04;69.84;;
46393;Laerm;32099;53.588;10.176;2023-07-20T12:03:23;50.82;38.06;71.18;;
46393;Laerm;32099;53.588;10.176;2023-07-20T12:05:48;42.03;37.62;50.96;;
46393;Laerm;32099;53.588;10.176;2023-07-20T12:08:15;40.47;36.22;47.62;;
46393;Laerm;32099;53.588;10.176;2023-07-20T12:10:42;54.08;38.88;71.87;;
46393;Laerm;32099;53.588;10.176;2023-07-20T12:13:09;49.56;37.87;69.08;;
46393;Laerm;32099;53.588;10.176;2023-07-20T12:15:35;52.01;37.09;69.67;;
46393;Laerm;32099;53.588;10.176;2023-07-20T12:18:02;48.53;37.06;66.61;;
46393;Laerm;32099;53.588;10.176;2023-07-20T12:20:30;47.77;36.97;66.03;;
46393;Laerm;32099;53.588;10.176;2023-07-20T12:22:59;48.83;38.25;69.42;;
46393;Laerm;32099;53.588;10.176;2023-07-20T12:25:32;53.26;38.76;70.23;;
46393;Laerm;32099;53.588;10.176;2023-07-20T12:28:00;54.29;39.51;69.86;;
46393;Laerm;32099;53.588;10.176;2023-07-20T12:30:27;53.79;43.76;69.29;;
46393;Laerm;32099;53.588;10.176;2023-07-20T12:32:53;46.24;35.95;65.15;;
46393;Laerm;32099;53.588;10.176;2023-07-20T12:35:18;54.13;37.23;72.52;;
46393;Laerm;32099;53.588;10.176;2023-07-20T12:37:44;56.44;36.09;75.14;;
46393;Laerm;32099;53.588;10.176;2023-07-20T12:40:10;48.29;35.27;68.49;;
46393;Laerm;32099;53.588;10.176;2023-07-20T12:42:35;40.51;35.62;53.66;;
46393;Laerm;32099;53.588;10.176;2023-07-20T12:45:01;40.63;35.42;51.57;;
46393;Laerm;32099;53.588;10.176;2023-07-20T12:47:26;47.16;35.82;66.61;;
46393;Laerm;32099;53.588;10.176;2023-07-20T12:49:51;47.83;35.11;64.54;;
46393;Laerm;32099;53.588;10.176;2023-07-20T12:52:17;56.10;34.85;72.88;;
46393;Laerm;32099;53.588;10.176;2023-07-20T12:54:42;42.49;33.86;57.44;;
46393;Laerm;32099;53.588;10.176;2023-07-20T12:57:07;53.68;34.08;70.29;;
46393;Laerm;32099;53.588;10.176;2023-07-20T12:59:33;48.48;34.50;69.01;;
46393;Laerm;32099;53.588;10.176;2023-07-20T13:01:58;50.23;36.27;68.62;;
46393;Laerm;32099;53.588;10.176;2023-07-20T13:04:23;49.62;34.80;70.36;;
46393;Laerm;32099;53.588;10.176;2023-07-20T13:06:49;50.73;37.00;66.15;;
46393;Laerm;32099;53.588;10.176;2023-07-20T13:09:14;55.01;38.24;68.63;;
46393;Laerm;32099;53.588;10.176;2023-07-20T13:11:39;39.74;34.58;51.54;;
46393;Laerm;32099;53.588;10.176;2023-07-20T13:14:05;50.03;35.07;70.78;;
46393;Laerm;32099;53.588;10.176;2023-07-20T13:16:30;45.72;34.53;63.42;;
46393;Laerm;32099;53.588;10.176;2023-07-20T13:18:55;48.00;33.56;67.47;;
46393;Laerm;32099;53.588;10.176;2023-07-20T13:21:21;49.62;33.69;68.01;;
46393;Laerm;32099;53.588;10.176;2023-07-20T13:23:48;40.98;34.32;53.56;;
46393;Laerm;32099;53.588;10.176;2023-07-20T13:26:14;52.44;34.18;67.51;;
46393;Laerm;32099;53.588;10.176;2023-07-20T13:28:40;56.41;34.95;72.43;;
46393;Laerm;32099;53.588;10.176;2023-07-20T13:31:05;49.63;37.63;62.57;;
46393;Laerm;32099;53.588;10.176;2023-07-20T13:33:30;47.41;39.74;67.77;;
46393;Laerm;32099;53.588;10.176;2023-07-20T13:35:55;48.81;40.78;66.77;;
46393;Laerm;32099;53.588;10.176;2023-07-20T13:38:21;52.48;38.48;70.17;;
46393;Laerm;32099;53.588;10.176;2023-07-20T13:40:47;50.34;39.21;66.90;;
46393;Laerm;32099;53.588;10.176;2023-07-20T13:43:12;49.66;42.09;63.06;;
46393;Laerm;32099;53.588;10.176;2023-07-20T13:45:38;54.27;41.72;69.26;;
46393;Laerm;32099;53.588;10.176;2023-07-20T13:48:03;53.96;40.88;69.49;;
46393;Laerm;32099;53.588;10.176;2023-07-20T13:50:28;51.30;40.68;67.83;;
46393;Laerm;32099;53.588;10.176;2023-07-20T13:52:54;48.24;38.07;62.85;;
46393;Laerm;32099;53.588;10.176;2023-07-20T13:55:19;50.74;37.28;70.43;;
46393;Laerm;32099;53.588;10.176;2023-07-20T13:57:44;50.64;40.85;66.45;;
46393;Laerm;32099;53.588;10.176;2023-07-20T14:00:10;51.40;38.71;69.30;;
46393;Laerm;32099;53.588;10.176;2023-07-20T14:02:36;49.70;37.23;68.09;;
46393;Laerm;32099;53.588;10.176;2023-07-20T14:05:02;54.65;37.41;73.51;;
46393;Laerm;32099;53.588;10.176;2023-07-20T14:07:27;53.07;40.55;72.32;;